createdAt,value
2023-04-26T00:00:13.384Z,86.46
2023-04-26T00:01:13.348Z,86.77
2023-04-26T00:02:13.381Z,87.12
2023-04-26T00:03:13.566Z,86.77
2023-04-26T00:04:13.520Z,86.57
2023-04-26T00:05:13.466Z,86.88
2023-04-26T00:06:13.299Z,87.29
2023-04-26T00:07:13.310Z,87.85
2023-04-26T00:08:13.309Z,87.65
2023-04-26T00:09:13.272Z,87.96
2023-04-26T00:10:13.308Z,88.17
2023-04-26T00:11:13.268Z,87.96
2023-04-26T00:12:13.285Z,87.54
2023-04-26T00:13:13.256Z,86.60
2023-04-26T00:14:13.296Z,87.54
2023-04-26T00:15:13.256Z,87.54
2023-04-26T00:16:13.316Z,87.23
2023-04-26T00:17:13.224Z,86.60
2023-04-26T00:18:13.298Z,86.46
2023-04-26T00:19:13.250Z,85.28
2023-04-26T00:20:13.268Z,83.99
2023-04-26T00:21:13.210Z,84.51
2023-04-26T00:22:13.213Z,83.89
2023-04-26T00:23:13.209Z,84.51
2023-04-26T00:24:13.220Z,84.72
2023-04-26T00:25:13.223Z,84.86
2023-04-26T00:26:13.205Z,84.86
2023-04-26T00:27:13.167Z,85.28
2023-04-26T00:28:13.178Z,85.69
2023-04-26T00:29:13.181Z,85.63
2023-04-26T00:30:13.183Z,85.63
2023-04-26T00:31:13.183Z,86.35
2023-04-26T00:32:13.181Z,86.35
2023-04-26T00:33:13.157Z,86.81
2023-04-26T00:34:13.151Z,86.40
2023-04-26T00:35:13.142Z,87.43
2023-04-26T00:36:13.155Z,86.40
2023-04-26T00:37:13.124Z,86.40
2023-04-26T00:38:13.146Z,86.91
2023-04-26T00:39:13.143Z,86.81
2023-04-26T00:40:13.123Z,87.23
2023-04-26T00:41:13.114Z,86.40
2023-04-26T00:42:13.114Z,87.75
2023-04-26T00:43:13.101Z,88.10
2023-04-26T00:44:13.097Z,88.10
2023-04-26T00:45:13.090Z,87.68
2023-04-26T00:46:13.105Z,88.52
2023-04-26T00:47:13.058Z,88.52
2023-04-26T00:48:13.184Z,88.42
2023-04-26T00:49:13.051Z,88.62
2023-04-26T00:50:13.086Z,88.52
2023-04-26T00:51:13.058Z,88.52
2023-04-26T00:52:13.049Z,88.42
2023-04-26T00:53:13.027Z,88.42
2023-04-26T00:54:13.041Z,88.42
2023-04-26T00:55:13.049Z,88.31
2023-04-26T00:56:13.096Z,88.20
2023-04-26T00:57:13.015Z,88.52
2023-04-26T00:58:13.029Z,87.96
2023-04-26T00:59:12.999Z,88.52
2023-04-26T01:00:13.009Z,88.56
2023-04-26T01:01:13.062Z,88.31
2023-04-26T01:02:13.121Z,88.10
2023-04-26T01:03:13.128Z,87.99
2023-04-26T01:04:13.126Z,88.42
2023-04-26T01:05:13.007Z,88.62
2023-04-26T01:06:13.012Z,88.42
2023-04-26T01:07:12.961Z,88.20
2023-04-26T01:08:12.971Z,88.62
2023-04-26T01:09:12.943Z,88.42
2023-04-26T01:10:12.962Z,87.79
2023-04-26T01:11:12.958Z,88.10
2023-04-26T01:12:12.962Z,88.73
2023-04-26T01:13:12.941Z,88.10
2023-04-26T01:14:12.953Z,88.45
2023-04-26T01:15:12.930Z,89.08
2023-04-26T01:16:12.928Z,89.81
2023-04-26T01:17:12.990Z,89.39
2023-04-26T01:18:12.939Z,89.50
2023-04-26T01:19:12.931Z,89.60
2023-04-26T01:20:12.994Z,89.39
2023-04-26T01:21:12.889Z,89.70
2023-04-26T01:22:12.899Z,89.91
2023-04-26T01:23:12.893Z,89.60
2023-04-26T01:24:13.001Z,89.50
2023-04-26T01:25:12.867Z,88.56
2023-04-26T01:26:12.902Z,88.14
2023-04-26T01:27:12.867Z,88.81
2023-04-26T01:28:12.864Z,89.08
2023-04-26T01:29:12.840Z,90.06
2023-04-26T01:30:12.883Z,89.85
2023-04-26T01:31:12.904Z,90.47
2023-04-26T01:32:12.860Z,90.37
2023-04-26T01:33:12.826Z,90.26
2023-04-26T01:34:12.856Z,90.00
2023-04-26T01:35:12.844Z,90.72
2023-04-26T01:36:12.818Z,90.37
2023-04-26T01:37:12.812Z,90.10
2023-04-26T01:38:12.821Z,90.06
2023-04-26T01:39:12.792Z,90.26
2023-04-26T01:40:12.848Z,89.75
2023-04-26T01:41:12.774Z,89.95
2023-04-26T01:42:12.809Z,90.10
2023-04-26T01:43:12.763Z,90.16
2023-04-26T01:44:12.817Z,90.10
2023-04-26T01:45:12.791Z,89.95
2023-04-26T01:46:12.836Z,90.37
2023-04-26T01:47:12.808Z,89.64
2023-04-26T01:48:12.773Z,89.64
2023-04-26T01:49:12.729Z,90.16
2023-04-26T01:50:12.739Z,90.20
2023-04-26T01:51:12.749Z,90.20
2023-04-26T01:52:12.719Z,90.93
2023-04-26T01:53:12.703Z,91.46
2023-04-26T01:54:12.725Z,91.66
2023-04-26T01:55:12.685Z,91.46
2023-04-26T01:56:12.725Z,91.56
2023-04-26T01:57:12.678Z,91.77
2023-04-26T01:58:12.715Z,90.62
2023-04-26T01:59:12.683Z,90.77
2023-04-26T02:00:12.692Z,91.18
2023-04-26T02:01:12.696Z,90.70
2023-04-26T02:02:12.708Z,91.33
2023-04-26T02:03:12.752Z,92.06
2023-04-26T02:04:12.679Z,92.83
2023-04-26T02:05:12.666Z,93.71
2023-04-26T02:06:12.658Z,94.65
2023-04-26T02:07:12.621Z,94.86
2023-04-26T02:08:12.643Z,95.07
2023-04-26T02:09:12.627Z,95.49
2023-04-26T02:10:12.621Z,95.80
2023-04-26T02:11:12.595Z,95.86
2023-04-26T02:12:12.615Z,95.70
2023-04-26T02:13:12.590Z,96.22
2023-04-26T02:14:12.622Z,96.70
2023-04-26T02:15:12.578Z,96.80
2023-04-26T02:16:12.625Z,96.84
2023-04-26T02:17:12.594Z,96.91
2023-04-26T02:18:12.625Z,97.01
2023-04-26T02:19:12.552Z,96.70
2023-04-26T02:20:12.581Z,96.59
2023-04-26T02:21:12.588Z,96.49
2023-04-26T02:22:12.560Z,96.28
2023-04-26T02:23:12.538Z,96.70
2023-04-26T02:24:12.532Z,96.28
2023-04-26T02:25:12.575Z,96.70
2023-04-26T02:26:12.527Z,96.38
2023-04-26T02:27:12.513Z,95.86
2023-04-26T02:28:12.525Z,96.74
2023-04-26T02:29:12.499Z,96.11
2023-04-26T02:30:12.499Z,96.53
2023-04-26T02:31:12.510Z,96.11
2023-04-26T02:32:12.506Z,96.33
2023-04-26T02:33:12.464Z,96.53
2023-04-26T02:34:12.501Z,96.64
2023-04-26T02:35:12.482Z,96.22
2023-04-26T02:36:12.502Z,95.95
2023-04-26T02:37:12.444Z,95.43
2023-04-26T02:38:12.458Z,95.21
2023-04-26T02:39:12.436Z,95.47
2023-04-26T02:40:12.479Z,96.25
2023-04-26T02:41:12.439Z,96.51
2023-04-26T02:42:12.446Z,96.35
2023-04-26T02:43:12.413Z,96.98
2023-04-26T02:44:12.461Z,97.50
2023-04-26T02:45:12.403Z,97.61
2023-04-26T02:46:12.405Z,97.71
2023-04-26T02:47:12.425Z,97.61
2023-04-26T02:48:12.396Z,98.65
2023-04-26T02:49:19.394Z,99.01
2023-04-26T02:50:12.397Z,99.74
2023-04-26T02:51:12.368Z,99.22
2023-04-26T02:52:12.412Z,99.91
2023-04-26T02:53:12.409Z,99.49
2023-04-26T02:54:12.404Z,99.70
2023-04-26T02:55:12.363Z,99.91
2023-04-26T02:56:12.362Z,99.99
2023-04-26T02:57:12.326Z,99.70
2023-04-26T02:58:12.388Z,99.70
2023-04-26T02:59:12.316Z,99.91
2023-04-26T03:00:12.403Z,99.91
2023-04-26T03:01:12.335Z,99.80
2023-04-26T03:02:12.387Z,99.80
2023-04-26T03:03:12.549Z,99.49
2023-04-26T03:04:12.399Z,99.80
2023-04-26T03:05:12.264Z,99.85
2023-04-26T03:06:12.309Z,99.95
2023-04-26T03:07:12.267Z,99.91
2023-04-26T03:08:12.283Z,99.99
2023-04-26T03:09:12.254Z,99.99
2023-04-26T03:10:12.265Z,99.99
2023-04-26T03:11:12.279Z,99.64
2023-04-26T03:12:12.262Z,99.85
2023-04-26T03:13:12.228Z,99.64
2023-04-26T03:14:12.229Z,99.74
2023-04-26T03:15:12.215Z,99.54
2023-04-26T03:16:12.279Z,99.74
2023-04-26T03:17:12.214Z,99.99
2023-04-26T03:18:12.202Z,99.85
2023-04-26T03:19:12.193Z,99.90
2023-04-26T03:20:12.240Z,99.64
2023-04-26T03:21:12.191Z,99.48
2023-04-26T03:22:12.197Z,99.48
2023-04-26T03:23:12.186Z,99.90
2023-04-26T03:24:12.189Z,99.68
2023-04-26T03:25:12.160Z,99.99
2023-04-26T03:26:12.191Z,99.99
2023-04-26T03:27:12.138Z,99.68
2023-04-26T03:28:12.158Z,99.99
2023-04-26T03:29:12.166Z,99.00
2023-04-26T03:30:12.143Z,98.89
2023-04-26T03:31:12.117Z,98.37
2023-04-26T03:32:12.282Z,99.98
2023-04-26T03:33:12.181Z,99.99
2023-04-26T03:34:12.121Z,99.99
2023-04-26T03:35:12.128Z,99.99
2023-04-26T03:36:12.097Z,99.99
2023-04-26T03:37:12.139Z,99.99
2023-04-26T03:38:12.102Z,99.99
2023-04-26T03:39:12.070Z,99.99
2023-04-26T03:40:12.100Z,99.99
2023-04-26T03:41:12.118Z,99.99
2023-04-26T03:42:12.071Z,99.99
2023-04-26T03:43:12.055Z,99.99
2023-04-26T03:44:12.066Z,99.99
2023-04-26T03:45:12.057Z,99.99
2023-04-26T03:46:12.141Z,99.99
2023-04-26T03:47:12.062Z,99.99
2023-04-26T03:48:12.243Z,99.99
2023-04-26T03:49:12.020Z,99.99
2023-04-26T03:50:12.032Z,99.99
2023-04-26T03:51:12.000Z,99.99
2023-04-26T03:52:12.036Z,99.99
2023-04-26T03:53:12.031Z,99.99
2023-04-26T03:54:12.015Z,99.99
2023-04-26T03:55:12.033Z,99.99
2023-04-26T03:56:12.008Z,99.99
2023-04-26T03:57:11.982Z,99.99
2023-04-26T03:58:12.005Z,99.99
2023-04-26T03:59:11.986Z,99.99
2023-04-26T04:00:11.963Z,99.99
2023-04-26T04:01:11.964Z,99.99
2023-04-26T04:02:12.031Z,99.99
2023-04-26T04:03:12.369Z,99.99
2023-04-26T04:04:12.299Z,99.99
2023-04-26T04:05:12.131Z,99.99
2023-04-26T04:06:11.937Z,99.99
2023-04-26T04:07:11.925Z,99.99
2023-04-26T04:08:12.043Z,99.99
2023-04-26T04:09:11.944Z,99.99
2023-04-26T04:10:11.914Z,99.99
2023-04-26T04:11:11.874Z,99.99
2023-04-26T04:12:11.904Z,99.99
2023-04-26T04:13:11.876Z,99.99
2023-04-26T04:14:11.919Z,99.99
2023-04-26T04:15:11.891Z,99.99
2023-04-26T04:16:11.911Z,99.99
2023-04-26T04:17:11.862Z,99.99
2023-04-26T04:18:11.906Z,99.99
2023-04-26T04:19:11.853Z,99.99
2023-04-26T04:20:11.858Z,99.99
2023-04-26T04:21:11.824Z,99.99
2023-04-26T04:22:11.853Z,99.79
2023-04-26T04:23:11.803Z,99.79
2023-04-26T04:24:11.845Z,99.68
2023-04-26T04:25:11.868Z,99.74
2023-04-26T04:26:11.815Z,99.43
2023-04-26T04:27:11.824Z,99.59
2023-04-26T04:28:11.834Z,99.80
2023-04-26T04:29:11.766Z,98.97
2023-04-26T04:30:11.776Z,98.50
2023-04-26T04:31:11.824Z,98.04
2023-04-26T04:32:11.757Z,97.37
2023-04-26T04:33:11.752Z,96.34
2023-04-26T04:34:11.755Z,95.56
2023-04-26T04:35:11.774Z,94.06
2023-04-26T04:36:11.817Z,92.35
2023-04-26T04:37:11.734Z,90.64
2023-04-26T04:38:11.728Z,90.01
2023-04-26T04:39:11.708Z,88.45
2023-04-26T04:40:11.902Z,88.48
2023-04-26T04:41:11.720Z,87.66
2023-04-26T04:42:11.740Z,85.65
2023-04-26T04:43:11.702Z,84.74
2023-04-26T04:44:11.734Z,84.60
2023-04-26T04:45:11.667Z,83.32
2023-04-26T04:46:12.738Z,81.76
2023-04-26T04:47:11.686Z,80.68
2023-04-26T04:48:11.949Z,80.02
2023-04-26T04:49:11.683Z,79.85
2023-04-26T04:50:11.651Z,79.10
2023-04-26T04:51:11.654Z,79.27
2023-04-26T04:52:11.654Z,78.40
2023-04-26T04:53:11.620Z,77.88
2023-04-26T04:54:11.657Z,77.53
2023-04-26T04:55:11.634Z,75.91
2023-04-26T04:56:11.623Z,76.43
2023-04-26T04:57:11.595Z,74.95
2023-04-26T04:58:11.599Z,74.43
2023-04-26T04:59:11.628Z,74.08
2023-04-26T05:00:11.636Z,72.53
2023-04-26T05:01:11.610Z,72.98
2023-04-26T05:02:11.636Z,73.29
2023-04-26T05:03:11.732Z,73.02
2023-04-26T05:04:11.751Z,74.74
2023-04-26T05:05:11.667Z,74.36
2023-04-26T05:06:11.564Z,72.57
2023-04-26T05:07:11.564Z,70.89
2023-04-26T05:08:11.567Z,71.20
2023-04-26T05:09:11.541Z,70.75
2023-04-26T05:10:11.541Z,69.07
2023-04-26T05:11:11.579Z,70.20
2023-04-26T05:12:11.536Z,70.65
2023-04-26T05:13:11.526Z,70.68
2023-04-26T05:14:11.511Z,71.09
2023-04-26T05:15:11.500Z,70.86
2023-04-26T05:16:11.932Z,70.00
2023-04-26T05:17:11.537Z,70.79
2023-04-26T05:18:11.612Z,69.76
2023-04-26T05:19:11.498Z,67.84
2023-04-26T05:20:11.507Z,67.57
2023-04-26T05:21:11.497Z,67.02
2023-04-26T05:22:11.488Z,67.87
2023-04-26T05:23:11.484Z,67.43
2023-04-26T05:24:11.465Z,67.91
2023-04-26T05:25:11.480Z,66.47
2023-04-26T05:26:11.456Z,66.02
2023-04-26T05:27:11.445Z,67.66
2023-04-26T05:28:11.462Z,67.86
2023-04-26T05:29:11.433Z,67.93
2023-04-26T05:30:11.455Z,69.10
2023-04-26T05:31:11.717Z,68.83
2023-04-26T05:32:11.530Z,67.49
2023-04-26T05:33:11.445Z,67.46
2023-04-26T05:34:11.408Z,67.22
2023-04-26T05:35:11.471Z,66.50
2023-04-26T05:36:11.402Z,66.58
2023-04-26T05:37:11.380Z,64.83
2023-04-26T05:38:11.389Z,65.03
2023-04-26T05:39:11.386Z,66.16
2023-04-26T05:40:11.387Z,66.31
2023-04-26T05:41:11.360Z,66.44
2023-04-26T05:42:11.370Z,65.00
2023-04-26T05:43:11.391Z,65.08
2023-04-26T05:44:11.361Z,64.22
2023-04-26T05:45:11.333Z,64.97
2023-04-26T05:46:11.417Z,64.76
2023-04-26T05:47:11.321Z,64.48
2023-04-26T05:48:11.356Z,63.64
2023-04-26T05:49:11.349Z,64.62
2023-04-26T05:50:11.313Z,66.30
2023-04-26T05:51:11.304Z,65.34
2023-04-26T05:52:11.317Z,64.66
2023-04-26T05:53:11.297Z,63.94
2023-04-26T05:54:11.304Z,63.17
2023-04-26T05:55:11.315Z,62.93
2023-04-26T05:56:11.286Z,62.14
2023-04-26T05:57:11.309Z,64.24
2023-04-26T05:58:11.278Z,66.53
2023-04-26T05:59:11.258Z,66.06
2023-04-26T06:00:11.256Z,63.64
2023-04-26T06:01:11.253Z,63.84
2023-04-26T06:02:11.255Z,62.88
2023-04-26T06:03:11.433Z,62.83
2023-04-26T06:04:11.629Z,62.08
2023-04-26T06:05:11.362Z,60.66
2023-04-26T06:06:11.226Z,59.94
2023-04-26T06:07:11.217Z,60.35
2023-04-26T06:08:11.221Z,59.50
2023-04-26T06:09:11.174Z,59.30
2023-04-26T06:10:11.191Z,59.05
2023-04-26T06:11:11.169Z,60.13
2023-04-26T06:12:11.310Z,61.77
2023-04-26T06:13:11.166Z,61.46
2023-04-26T06:14:23.148Z,59.97
2023-04-26T06:15:12.148Z,59.89
2023-04-26T06:16:11.166Z,59.56
2023-04-26T06:17:11.160Z,59.33
2023-04-26T06:18:11.208Z,60.17
2023-04-26T06:19:11.108Z,59.97
2023-04-26T06:20:11.127Z,59.02
2023-04-26T06:21:11.100Z,59.71
2023-04-26T06:22:11.111Z,59.20
2023-04-26T06:23:11.077Z,58.15
2023-04-26T06:24:11.093Z,58.33
2023-04-26T06:25:11.070Z,56.99
2023-04-26T06:26:11.077Z,57.64
2023-04-26T06:27:11.064Z,57.30
2023-04-26T06:28:11.088Z,56.87
2023-04-26T06:29:11.024Z,57.28
2023-04-26T06:30:11.449Z,57.17
2023-04-26T06:31:11.010Z,57.28
2023-04-26T06:32:11.017Z,57.71
2023-04-26T06:33:11.056Z,57.48
2023-04-26T06:34:11.017Z,57.48
2023-04-26T06:35:10.998Z,57.61
2023-04-26T06:36:10.998Z,57.35
2023-04-26T06:37:10.972Z,56.74
2023-04-26T06:38:10.978Z,57.30
2023-04-26T06:39:10.989Z,57.22
2023-04-26T06:40:10.963Z,55.10
2023-04-26T06:41:10.939Z,54.03
2023-04-26T06:42:10.977Z,53.50
2023-04-26T06:43:10.948Z,54.13
2023-04-26T06:44:10.956Z,54.44
2023-04-26T06:45:10.923Z,54.49
2023-04-26T06:46:10.952Z,55.33
2023-04-26T06:47:10.913Z,55.33
2023-04-26T06:48:10.980Z,55.38
2023-04-26T06:49:10.925Z,54.00
2023-04-26T06:50:10.891Z,52.58
2023-04-26T06:51:10.895Z,53.50
2023-04-26T06:52:10.874Z,52.40
2023-04-26T06:53:10.861Z,50.19
2023-04-26T06:54:10.850Z,50.39
2023-04-26T06:55:10.818Z,50.29
2023-04-26T06:56:10.846Z,52.48
2023-04-26T06:57:10.825Z,52.61
2023-04-26T06:58:10.837Z,50.06
2023-04-26T06:59:10.789Z,50.49
2023-04-26T07:00:10.807Z,52.48
2023-04-26T07:01:10.834Z,51.89
2023-04-26T07:02:10.786Z,49.61
2023-04-26T07:03:10.968Z,50.32
2023-04-26T07:04:11.040Z,49.66
2023-04-26T07:05:10.983Z,47.69
2023-04-26T07:06:10.787Z,49.00
2023-04-26T07:07:12.503Z,50.14
2023-04-26T07:08:10.757Z,48.95
2023-04-26T07:09:10.706Z,47.71
2023-04-26T07:10:10.755Z,48.50
2023-04-26T07:11:10.771Z,49.00
2023-04-26T07:12:10.694Z,49.70
2023-04-26T07:13:10.688Z,51.89
2023-04-26T07:14:10.683Z,49.28
2023-04-26T07:15:10.678Z,49.40
2023-04-26T07:16:10.800Z,51.53
2023-04-26T07:17:10.665Z,52.12
2023-04-26T07:18:10.651Z,54.57
2023-04-26T07:19:10.638Z,57.38
2023-04-26T07:20:10.645Z,59.94
2023-04-26T07:21:10.639Z,59.05
2023-04-26T07:22:10.658Z,61.20
2023-04-26T07:23:10.587Z,61.30
2023-04-26T07:24:10.605Z,59.97
2023-04-26T07:25:10.606Z,61.51
2023-04-26T07:26:10.599Z,60.69
2023-04-26T07:27:10.576Z,60.66
2023-04-26T07:28:10.568Z,59.74
2023-04-26T07:29:10.558Z,58.92
2023-04-26T07:30:10.574Z,59.87
2023-04-26T07:31:11.038Z,60.05
2023-04-26T07:32:10.711Z,60.23
2023-04-26T07:33:10.659Z,61.74
2023-04-26T07:34:10.525Z,60.92
2023-04-26T07:35:10.498Z,59.46
2023-04-26T07:36:10.505Z,59.13
2023-04-26T07:37:10.477Z,62.85
2023-04-26T07:38:10.476Z,61.29
2023-04-26T07:39:10.481Z,60.13
2023-04-26T07:40:10.514Z,60.75
2023-04-26T07:41:10.445Z,60.67
2023-04-26T07:42:10.490Z,59.64
2023-04-26T07:43:10.440Z,59.69
2023-04-26T07:44:10.463Z,58.70
2023-04-26T07:45:10.430Z,53.06
2023-04-26T07:46:10.444Z,55.74
2023-04-26T07:47:10.388Z,59.80
2023-04-26T07:48:10.429Z,63.72
2023-04-26T07:49:10.459Z,64.68
2023-04-26T07:50:10.388Z,64.62
2023-04-26T07:51:10.355Z,60.45
2023-04-26T07:52:10.363Z,59.22
2023-04-26T07:53:10.362Z,60.02
2023-04-26T07:54:10.373Z,60.28
2023-04-26T07:55:10.355Z,62.68
2023-04-26T07:56:10.365Z,64.12
2023-04-26T07:57:10.330Z,65.53
2023-04-26T07:58:10.328Z,64.72
2023-04-26T07:59:10.326Z,63.72
2023-04-26T08:00:10.354Z,63.45
2023-04-26T08:01:10.282Z,63.65
2023-04-26T08:02:10.308Z,63.93
2023-04-26T08:03:10.496Z,62.95
2023-04-26T08:04:10.747Z,60.60
2023-04-26T08:05:10.382Z,57.41
2023-04-26T08:06:10.421Z,56.49
2023-04-26T08:07:10.240Z,53.52
2023-04-26T08:08:10.259Z,50.86
2023-04-26T08:09:10.231Z,49.65
2023-04-26T08:10:10.298Z,47.89
2023-04-26T08:11:10.201Z,48.11
2023-04-26T08:12:10.257Z,48.03
2023-04-26T08:13:10.223Z,48.88
2023-04-26T08:14:10.214Z,47.47
2023-04-26T08:15:10.178Z,48.46
2023-04-26T08:16:10.449Z,49.24
2023-04-26T08:17:10.252Z,50.44
2023-04-26T08:18:10.190Z,52.69
2023-04-26T08:19:10.178Z,50.67
2023-04-26T08:20:10.161Z,51.37
2023-04-26T08:21:10.136Z,55.07
2023-04-26T08:22:10.152Z,57.50
2023-04-26T08:23:10.134Z,58.40
2023-04-26T08:24:10.123Z,60.43
2023-04-26T08:25:10.104Z,56.80
2023-04-26T08:26:10.107Z,57.42
2023-04-26T08:27:10.132Z,55.59
2023-04-26T08:28:10.103Z,57.78
2023-04-26T08:29:10.130Z,55.82
2023-04-26T08:30:10.106Z,55.80
2023-04-26T08:31:10.214Z,55.54
2023-04-26T08:32:10.063Z,55.21
2023-04-26T08:33:10.113Z,55.72
2023-04-26T08:34:10.055Z,53.07
2023-04-26T08:35:10.081Z,52.99
2023-04-26T08:36:10.147Z,54.46
2023-04-26T08:37:10.061Z,50.29
2023-04-26T08:38:10.013Z,46.39
2023-04-26T08:39:10.043Z,43.88
2023-04-26T08:40:10.083Z,45.84
2023-04-26T08:41:10.006Z,46.25
2023-04-26T08:42:10.019Z,42.18
2023-04-26T08:43:09.974Z,40.77
2023-04-26T08:44:10.014Z,39.12
2023-04-26T08:45:09.949Z,38.14
2023-04-26T08:46:10.004Z,42.87
2023-04-26T08:47:09.952Z,47.28
2023-04-26T08:48:09.980Z,49.10
2023-04-26T08:49:09.936Z,45.78
2023-04-26T08:50:09.950Z,45.97
2023-04-26T08:51:09.928Z,45.61
2023-04-26T08:52:09.932Z,43.02
2023-04-26T08:53:09.922Z,43.73
2023-04-26T08:54:09.915Z,43.76
2023-04-26T08:55:09.885Z,44.35
2023-04-26T08:56:09.899Z,44.04
2023-04-26T08:57:09.898Z,43.96
2023-04-26T08:58:09.877Z,46.93
2023-04-26T08:59:09.866Z,48.14
2023-04-26T09:00:09.877Z,46.84
2023-04-26T09:01:09.903Z,46.27
2023-04-26T09:02:09.942Z,46.37
2023-04-26T09:03:09.934Z,46.45
2023-04-26T09:04:09.989Z,46.00
2023-04-26T09:05:09.954Z,45.49
2023-04-26T09:06:09.817Z,46.41
2023-04-26T09:07:09.803Z,47.05
2023-04-26T09:08:09.857Z,45.59
2023-04-26T09:09:09.783Z,45.59
2023-04-26T09:10:09.791Z,44.78
2023-04-26T09:11:09.756Z,45.06
2023-04-26T09:12:09.783Z,43.32
2023-04-26T09:13:09.752Z,42.91
2023-04-26T09:14:09.760Z,43.94
2023-04-26T09:15:09.750Z,42.65
2023-04-26T09:16:09.784Z,42.37
2023-04-26T09:17:09.714Z,41.00
2023-04-26T09:18:09.726Z,39.76
2023-04-26T09:19:09.697Z,39.24
2023-04-26T09:20:09.707Z,40.43
2023-04-26T09:21:09.701Z,41.41
2023-04-26T09:22:09.701Z,41.39
2023-04-26T09:23:09.695Z,41.07
2023-04-26T09:24:09.695Z,40.11
2023-04-26T09:25:09.641Z,41.02
2023-04-26T09:26:09.652Z,41.14
2023-04-26T09:27:09.627Z,40.98
2023-04-26T09:28:09.649Z,44.29
2023-04-26T09:29:09.634Z,43.06
2023-04-26T09:30:09.649Z,44.57
2023-04-26T09:31:09.649Z,43.32
2023-04-26T09:32:09.631Z,43.22
2023-04-26T09:33:09.779Z,43.08
2023-04-26T09:34:09.613Z,43.90
2023-04-26T09:35:09.579Z,43.24
2023-04-26T09:36:09.581Z,41.61
2023-04-26T09:37:09.573Z,41.02
2023-04-26T09:38:12.773Z,42.20
2023-04-26T09:39:09.537Z,42.59
2023-04-26T09:40:09.542Z,42.49
2023-04-26T09:41:09.532Z,41.38
2023-04-26T09:42:09.577Z,42.61
2023-04-26T09:43:09.512Z,42.69
2023-04-26T09:44:09.538Z,42.49
2023-04-26T09:45:09.482Z,43.20
2023-04-26T09:46:09.499Z,42.59
2023-04-26T09:47:09.578Z,43.32
2023-04-26T09:48:09.500Z,42.88
2023-04-26T09:49:09.461Z,43.26
2023-04-26T09:50:09.473Z,44.45
2023-04-26T09:51:09.485Z,43.91
2023-04-26T09:52:09.461Z,45.98
2023-04-26T09:53:09.432Z,44.94
2023-04-26T09:54:09.438Z,44.43
2023-04-26T09:55:12.589Z,44.79
2023-04-26T09:56:10.512Z,42.14
2023-04-26T09:57:09.397Z,43.37
2023-04-26T09:58:09.402Z,42.35
2023-04-26T09:59:09.370Z,42.73
2023-04-26T10:00:09.391Z,42.18
2023-04-26T10:01:09.449Z,43.10
2023-04-26T10:02:09.375Z,44.10
2023-04-26T10:03:09.512Z,42.63
2023-04-26T10:04:09.445Z,42.29
2023-04-26T10:05:09.323Z,40.67
2023-04-26T10:06:09.318Z,40.88
2023-04-26T10:07:09.312Z,40.90
2023-04-26T10:08:09.356Z,42.02
2023-04-26T10:09:09.292Z,42.61
2023-04-26T10:10:09.350Z,39.43
2023-04-26T10:11:09.298Z,38.78
2023-04-26T10:12:09.303Z,38.34
2023-04-26T10:13:09.299Z,37.93
2023-04-26T10:14:09.297Z,38.04
2023-04-26T10:15:09.245Z,37.65
2023-04-26T10:16:09.303Z,38.34
2023-04-26T10:17:09.219Z,37.56
2023-04-26T10:18:09.304Z,41.24
2023-04-26T10:19:09.232Z,41.88
2023-04-26T10:20:09.214Z,41.14
2023-04-26T10:21:09.241Z,40.63
2023-04-26T10:22:09.227Z,41.47
2023-04-26T10:23:09.177Z,43.37
2023-04-26T10:24:09.208Z,44.78
2023-04-26T10:25:09.146Z,43.10
2023-04-26T10:26:09.208Z,42.26
2023-04-26T10:27:09.142Z,42.06
2023-04-26T10:28:09.138Z,42.18
2023-04-26T10:29:09.407Z,45.92
2023-04-26T10:30:09.160Z,46.08
2023-04-26T10:31:09.096Z,42.49
2023-04-26T10:32:09.244Z,42.06
2023-04-26T10:33:09.141Z,41.51
2023-04-26T10:34:10.813Z,40.88
2023-04-26T10:35:09.071Z,40.35
2023-04-26T10:36:09.110Z,40.05
2023-04-26T10:37:09.125Z,40.14
2023-04-26T10:38:09.070Z,40.96
2023-04-26T10:39:09.040Z,41.45
2023-04-26T10:40:09.052Z,41.13
2023-04-26T10:41:09.029Z,39.99
2023-04-26T10:42:09.033Z,38.38
2023-04-26T10:43:09.042Z,39.15
2023-04-26T10:44:09.034Z,40.00
2023-04-26T10:45:08.995Z,41.35
2023-04-26T10:46:09.018Z,40.94
2023-04-26T10:47:08.983Z,42.46
2023-04-26T10:48:09.012Z,43.90
2023-04-26T10:49:08.986Z,44.08
2023-04-26T10:50:09.160Z,42.73
2023-04-26T10:51:08.947Z,45.72
2023-04-26T10:52:08.953Z,46.72
2023-04-26T10:53:08.930Z,47.85
2023-04-26T10:54:08.959Z,46.54
2023-04-26T10:55:08.917Z,49.46
2023-04-26T10:56:08.911Z,50.20
2023-04-26T10:57:08.900Z,52.46
2023-04-26T10:58:08.927Z,50.22
2023-04-26T10:59:28.527Z,50.32
2023-04-26T11:00:09.917Z,49.81
2023-04-26T11:01:08.889Z,48.89
2023-04-26T11:02:08.878Z,49.71
2023-04-26T11:03:09.027Z,50.20
2023-04-26T11:04:08.954Z,49.72
2023-04-26T11:05:08.846Z,48.44
2023-04-26T11:06:08.837Z,46.28
2023-04-26T11:07:08.805Z,49.19
2023-04-26T11:08:08.834Z,49.56
2023-04-26T11:09:08.782Z,48.41
2023-04-26T11:10:08.809Z,46.95
2023-04-26T11:11:08.803Z,45.50
2023-04-26T11:12:08.784Z,46.81
2023-04-26T11:13:08.772Z,45.56
2023-04-26T11:14:08.787Z,46.17
2023-04-26T11:15:08.801Z,43.73
2023-04-26T11:16:08.842Z,44.65
2023-04-26T11:17:08.730Z,44.43
2023-04-26T11:18:08.816Z,46.17
2023-04-26T11:19:08.778Z,45.68
2023-04-26T11:20:08.734Z,45.94
2023-04-26T11:21:08.701Z,44.73
2023-04-26T11:22:08.714Z,43.57
2023-04-26T11:23:08.683Z,42.07
2023-04-26T11:24:08.721Z,42.67
2023-04-26T11:25:08.654Z,42.57
2023-04-26T11:26:08.853Z,43.28
2023-04-26T11:27:08.721Z,41.11
2023-04-26T11:28:08.695Z,42.77
2023-04-26T11:29:08.629Z,43.38
2023-04-26T11:30:08.637Z,44.64
2023-04-26T11:31:08.667Z,45.43
2023-04-26T11:32:08.620Z,44.37
2023-04-26T11:33:08.632Z,46.12
2023-04-26T11:34:08.617Z,45.45
2023-04-26T11:35:08.612Z,47.22
2023-04-26T11:36:08.600Z,47.91
2023-04-26T11:37:08.580Z,46.15
2023-04-26T11:38:08.585Z,45.90
2023-04-26T11:39:08.596Z,42.61
2023-04-26T11:40:08.575Z,43.53
2023-04-26T11:41:08.528Z,47.63
2023-04-26T11:42:08.555Z,49.46
2023-04-26T11:43:08.526Z,47.89
2023-04-26T11:44:08.700Z,47.92
2023-04-26T11:45:08.522Z,48.76
2023-04-26T11:46:08.606Z,50.02
2023-04-26T11:47:08.649Z,49.14
2023-04-26T11:48:08.512Z,45.82
2023-04-26T11:49:08.493Z,44.17
2023-04-26T11:50:08.470Z,43.65
2023-04-26T11:51:08.565Z,44.57
2023-04-26T11:52:08.476Z,44.96
2023-04-26T11:53:08.459Z,43.69
2023-04-26T11:54:08.471Z,45.86
2023-04-26T11:55:08.508Z,43.69
2023-04-26T11:56:08.463Z,43.67
2023-04-26T11:57:08.426Z,43.57
2023-04-26T11:58:08.438Z,43.85
2023-04-26T11:59:08.399Z,43.94
2023-04-26T12:00:08.427Z,43.10
2023-04-26T12:01:08.409Z,43.06
2023-04-26T12:02:08.512Z,42.35
2023-04-26T12:03:08.629Z,42.43
2023-04-26T12:04:08.549Z,41.19
2023-04-26T12:05:08.409Z,40.17
2023-04-26T12:06:08.388Z,41.00
2023-04-26T12:07:08.337Z,43.59
2023-04-26T12:08:08.393Z,43.06
2023-04-26T12:09:08.316Z,41.10
2023-04-26T12:10:08.327Z,40.90
2023-04-26T12:11:08.307Z,39.74
2023-04-26T12:12:08.374Z,39.51
2023-04-26T12:13:08.279Z,40.84
2023-04-26T12:14:08.289Z,41.06
2023-04-26T12:15:08.282Z,39.62
2023-04-26T12:16:22.217Z,38.76
2023-04-26T12:17:09.290Z,39.58
2023-04-26T12:18:08.260Z,36.92
2023-04-26T12:19:08.247Z,37.92
2023-04-26T12:20:08.254Z,37.27
2023-04-26T12:21:08.218Z,37.56
2023-04-26T12:22:08.270Z,37.80
2023-04-26T12:23:08.198Z,37.95
2023-04-26T12:24:08.214Z,39.76
2023-04-26T12:25:08.197Z,40.28
2023-04-26T12:26:08.191Z,39.43
2023-04-26T12:27:08.221Z,40.82
2023-04-26T12:28:08.175Z,39.58
2023-04-26T12:29:08.146Z,36.65
2023-04-26T12:30:08.172Z,38.80
2023-04-26T12:31:08.147Z,37.66
2023-04-26T12:32:08.303Z,37.34
2023-04-26T12:33:17.278Z,37.12
2023-04-26T12:34:09.155Z,38.14
2023-04-26T12:35:08.128Z,37.24
2023-04-26T12:36:08.129Z,37.65
2023-04-26T12:37:08.080Z,37.75
2023-04-26T12:38:08.083Z,39.60
2023-04-26T12:39:08.165Z,39.55
2023-04-26T12:40:08.096Z,40.26
2023-04-26T12:41:08.047Z,42.04
2023-04-26T12:42:08.072Z,41.00
2023-04-26T12:43:08.021Z,40.03
2023-04-26T12:44:08.030Z,40.03
2023-04-26T12:45:08.043Z,41.12
2023-04-26T12:46:08.078Z,39.55
2023-04-26T12:47:08.028Z,39.15
2023-04-26T12:48:08.061Z,39.43
2023-04-26T12:49:07.995Z,38.49
2023-04-26T12:50:08.009Z,37.95
2023-04-26T12:51:07.958Z,37.02
2023-04-26T12:52:08.004Z,37.23